Terminal Aerodrome Forecast
Issued by NWS

Home | Current Version | Previous Version | Text Only | Print | Product List | Glossary Off
Versions: 1 2 3 4 5 6 7 8 9 10 11 12 13 14 15 16 17 18 19 20 21

614
FTUS43 KGRB 212320
TAFCWA
TAF
KCWA 212320Z 2200/2224 10005KT P6SM -SHRA OVC009
     FM220200 09004KT 6SM -SHRA BR OVC005
     FM220800 03003KT 5SM -SHRA BR OVC004
     FM221200 01002KT P6SM BKN007
     FM221600 35003KT P6SM BKN017
     FM221700 28004KT P6SM SCT045
      AMD LTD TO CLD VIS AND WIND 2203/2211=

USA.gov is the U.S. government's official web portal to all federal, state and local government web resources and services.